logo meteosardegna

Diretta Meteo Figari, Francialunedì 15 luglio ore 09:30

Mappa
Sereno 30 °C Sereno 24 Ore: T.min 17 T.max 33
Ponente Est/Nord-Est Km/h 16.7 Punto di rugiada: 22 °C Umidità: 62% Visibilità: 10 Km
Il sole sorge alle: 06:01 Il sole tramonta alle: 20:57
15 Luglio 2024 09:30 tempo osservato: Sereno Sereno 30 62 1013 vento: Nord E/NE 16.7
15 Luglio 2024 09:00 tempo osservato: Sereno Sereno 29 66 1013 vento: Nord E/NE 16.7
15 Luglio 2024 08:30 tempo osservato: Sereno Sereno 28 69 1013 vento: Nord E/NE 16.7
15 Luglio 2024 08:00 tempo osservato: Sereno Sereno 26 69 1013 vento: Nord E 13
15 Luglio 2024 07:30 tempo osservato: Sereno Sereno 24 78 1013 vento: Nord E/NE 14.8
15 Luglio 2024 07:00 tempo osservato: Sereno Sereno 19 100 1013 vento: Nord N 5.5
15 Luglio 2024 06:30 tempo osservato: Sereno Sereno 17 93 1013 vento: Nord N 3.7
15 Luglio 2024 06:00 tempo osservato: Sereno Sereno 17 93 1013 vento: Nord N 3.7
15 Luglio 2024 05:30 tempo osservato: Sereno Sereno 17 93 1013 vento: Nord N 3.7
15 Luglio 2024 05:00 tempo osservato: Sereno Sereno 17 100 1013 vento: Nord N 1.8
15 Luglio 2024 04:30 tempo osservato: Sereno Sereno 18 93 1013 vento: Nord N 3.7
15 Luglio 2024 04:00 tempo osservato: Sereno Sereno 18 93 1013 vento: Nord NE 9.3
15 Luglio 2024 03:30 tempo osservato: Sereno Sereno 17 93 1013 vento: Nord N 1.8
15 Luglio 2024 03:00 tempo osservato: Sereno Sereno 18 93 1013 vento: Nord N 0
15 Luglio 2024 02:30 tempo osservato: Sereno Sereno 18 93 1013 vento: Nord N 1.8
15 Luglio 2024 02:00 tempo osservato: Sereno Sereno 19 93 1013 vento: Nord NE 7.4
15 Luglio 2024 01:30 tempo osservato: Sereno Sereno 18 88 1013 vento: Nord N 5.5
15 Luglio 2024 01:00 tempo osservato: Sereno Sereno 19 88 1013 vento: Nord N 3.7
15 Luglio 2024 00:30 tempo osservato: Sereno Sereno 19 88 1013 vento: Nord N 3.7
15 Luglio 2024 00:00 tempo osservato: Sereno Sereno 20 88 1013 vento: Nord N 1.8
14 Luglio 2024 23:30 tempo osservato: Sereno Sereno 20 88 1013 vento: Nord N 3.7
14 Luglio 2024 23:00 tempo osservato: Sereno Sereno 21 82 1013 vento: Nord N 3.7
14 Luglio 2024 22:30 tempo osservato: Sereno Sereno 22 83 1013 vento: Nord N 3.7
14 Luglio 2024 22:00 tempo osservato: Sereno Sereno 23 83 1013 vento: Nord N 3.7
14 Luglio 2024 21:30 tempo osservato: Sereno Sereno 24 73 1013 vento: Nord N 3.7
14 Luglio 2024 21:00 tempo osservato: Sereno Sereno 25 73 1013 vento: Nord N 3.7
14 Luglio 2024 20:30 tempo osservato: Sereno Sereno 26 69 1013 vento: Nord S 7.4
14 Luglio 2024 20:00 tempo osservato: Sereno Sereno 28 61 1012 vento: Nord S/SO 11.1
14 Luglio 2024 19:30 tempo osservato: Sereno Sereno 30 55 1012 vento: Nord S/SO 9.3
14 Luglio 2024 19:00 tempo osservato: Sereno Sereno 31 48 1012 vento: Nord S/SO 11.1
14 Luglio 2024 18:30 tempo osservato: Sereno Sereno 32 35 1012 vento: Nord S 9.3
14 Luglio 2024 18:00 tempo osservato: Sereno Sereno 32 38 1012 vento: Nord S/SO 13
14 Luglio 2024 17:30 tempo osservato: Sereno Sereno 33 33 1012 vento: Nord S 14.8
14 Luglio 2024 17:00 tempo osservato: Sereno Sereno 32 35 1012 vento: Nord S 16.7
14 Luglio 2024 16:30 tempo osservato: Sereno Sereno 32 40 1012 vento: Nord S/SO 16.7
14 Luglio 2024 16:00 tempo osservato: Sereno Sereno 33 36 1012 vento: Nord S/SO 18.5
14 Luglio 2024 15:30 tempo osservato: Sereno Sereno 33 43 1012 vento: Nord S/SO 18.5
14 Luglio 2024 15:00 tempo osservato: Sereno Sereno 32 49 1012 vento: Nord S/SO 18.5
14 Luglio 2024 14:30 tempo osservato: Sereno Sereno 32 52 1012 vento: Nord S/SO 16.7
14 Luglio 2024 14:00 tempo osservato: Sereno Sereno 32 52 1012 vento: Nord S/SO 18.5
14 Luglio 2024 13:30 tempo osservato: Sereno Sereno 32 55 1012 vento: Nord S/SO 14.8
14 Luglio 2024 13:00 tempo osservato: Sereno Sereno 32 52 1012 vento: Nord S/SO 18.5
14 Luglio 2024 12:30 tempo osservato: Sereno Sereno 32 55 1012 vento: Nord S/SO 14.8
14 Luglio 2024 12:00 tempo osservato: Sereno Sereno 32 55 1012 vento: Nord SO 14.8
14 Luglio 2024 11:30 tempo osservato: Sereno Sereno 30 58 1012 vento: Nord SO 20.3
14 Luglio 2024 11:00 tempo osservato: Sereno Sereno 31 55 1012 vento: Nord SO 16.7
14 Luglio 2024 10:30 tempo osservato: Sereno Sereno 31 55 1012 vento: Nord SO 11.1
14 Luglio 2024 10:00 tempo osservato: Sereno Sereno 30 58 1012 vento: Nord SO 9.3